createdAt,value
2022-11-23T06:24:34.903Z,99893.50
2022-11-23T06:27:02.806Z,99891.59
2022-11-23T06:29:31.032Z,99891.50
2022-11-23T06:31:59.204Z,99898.50
2022-11-23T06:34:32.841Z,99899.41
2022-11-23T06:37:00.765Z,99903.75
2022-11-23T06:39:28.664Z,99898.41
2022-11-23T06:42:10.968Z,99902.72
2022-11-23T06:44:45.793Z,99901.00
2022-11-23T06:47:16.862Z,99899.19
2022-11-23T06:49:46.314Z,99909.66
2022-11-23T06:52:14.521Z,99912.22
2022-11-23T06:54:42.472Z,99912.22
2022-11-23T06:57:11.749Z,99907.97
2022-11-23T06:59:44.907Z,99911.59
2022-11-23T07:02:13.037Z,99920.28
2022-11-23T07:04:40.923Z,99915.03
2022-11-23T07:07:08.953Z,99919.41
2022-11-23T07:09:37.046Z,99921.19
2022-11-23T07:12:05.005Z,99926.41
2022-11-23T07:14:34.223Z,99922.09
2022-11-23T07:17:02.129Z,99929.03
2022-11-23T07:19:30.285Z,99927.28
2022-11-23T07:21:58.279Z,99927.22
2022-11-23T07:24:26.220Z,99935.09
2022-11-23T07:26:54.268Z,99928.16
2022-11-23T07:29:22.165Z,99938.50
2022-11-23T07:31:51.468Z,99931.50
2022-11-23T07:34:19.404Z,99935.00
2022-11-23T07:36:47.280Z,99936.75
2022-11-23T07:39:15.425Z,99940.28
2022-11-23T07:41:43.383Z,99947.28
2022-11-23T07:44:11.309Z,99944.78
2022-11-23T07:46:39.190Z,99943.88
2022-11-23T07:49:08.679Z,99944.66
2022-11-23T07:51:36.557Z,99943.84
2022-11-23T07:54:04.629Z,99952.53
2022-11-23T07:56:32.488Z,99953.44
2022-11-23T07:59:00.402Z,99946.47
2022-11-23T08:01:28.303Z,99955.16
2022-11-23T08:03:56.725Z,99955.16
2022-11-23T08:06:25.991Z,99954.25
2022-11-23T08:08:55.544Z,99953.41
2022-11-23T08:11:23.528Z,99961.25
2022-11-23T08:13:51.406Z,99959.56
2022-11-23T08:16:20.092Z,99954.25
2022-11-23T08:18:50.715Z,99954.25
2022-11-23T08:21:18.630Z,99951.63
2022-11-23T08:23:47.912Z,99959.47
2022-11-23T08:26:15.805Z,99958.66
2022-11-23T08:28:43.686Z,99966.50
2022-11-23T08:31:14.828Z,99963.84
2022-11-23T08:33:42.715Z,99958.59
2022-11-23T08:36:10.772Z,99962.09
2022-11-23T08:38:38.858Z,99963.75
2022-11-23T08:41:08.732Z,99956.75
2022-11-23T08:43:36.764Z,99962.91
2022-11-23T08:46:09.269Z,99962.91
2022-11-23T08:48:38.952Z,99968.16
2022-11-23T08:51:07.174Z,99972.50
2022-11-23T08:53:35.122Z,99972.50
2022-11-23T08:56:03.046Z,99971.56
2022-11-23T08:58:32.505Z,99978.53
2022-11-23T09:01:00.521Z,99977.63
2022-11-23T09:03:28.424Z,99976.75
2022-11-23T09:06:00.712Z,99975.94
2022-11-23T09:08:28.608Z,99974.09
2022-11-23T09:11:00.072Z,99974.09
2022-11-23T09:13:27.983Z,99979.28
2022-11-23T09:16:00.019Z,99980.97
2022-11-23T09:18:28.000Z,99980.09
2022-11-23T09:20:55.890Z,99979.22
2022-11-23T09:23:23.755Z,99981.78
2022-11-23T09:25:51.635Z,99985.19
2022-11-23T09:28:19.780Z,99989.53
2022-11-23T09:30:48.157Z,99997.41
2022-11-23T09:33:17.441Z,99985.94
2022-11-23T09:35:45.399Z,99986.78
2022-11-23T09:38:13.421Z,99992.91
2022-11-23T09:40:41.903Z,99992.91
2022-11-23T09:43:20.824Z,99989.38
2022-11-23T09:45:50.489Z,99974.09
2022-11-23T09:48:36.267Z,99991.06
2022-11-23T09:51:06.484Z,99992.78
2022-11-23T09:53:35.969Z,99987.41
2022-11-23T09:56:03.839Z,99995.25
2022-11-23T09:58:33.770Z,99996.94
2022-11-23T10:01:02.626Z,99992.63
2022-11-23T10:03:33.752Z,99999.56
2022-11-23T10:06:03.821Z,99999.50
2022-11-23T10:08:40.773Z,99996.88
2022-11-23T10:11:28.804Z,100002.13
2022-11-23T10:13:59.230Z,100002.09
2022-11-23T10:16:31.051Z,100005.53
2022-11-23T10:19:03.629Z,100007.31
2022-11-23T10:21:38.497Z,100009.03
2022-11-23T10:24:13.321Z,100012.53
2022-11-23T10:26:42.368Z,100006.34
2022-11-23T10:29:13.443Z,100012.38
2022-11-23T10:31:41.458Z,100010.63
2022-11-23T10:34:12.568Z,100006.25
2022-11-23T10:36:40.520Z,99995.81
2022-11-23T10:39:15.450Z,100001.84
2022-11-23T10:41:43.315Z,100001.84
2022-11-23T10:44:28.960Z,100006.16
2022-11-23T10:46:56.854Z,100006.09
2022-11-23T10:49:27.587Z,100001.72
2022-11-23T10:51:56.869Z,100006.91
2022-11-23T10:54:30.529Z,100004.31
2022-11-23T10:56:59.196Z,100000.75
2022-11-23T10:59:32.764Z,100005.09
2022-11-23T11:02:10.464Z,100011.03
2022-11-23T11:04:39.800Z,100000.31
2022-11-23T11:07:34.409Z,99997.66
2022-11-23T11:10:04.315Z,99991.78
2022-11-23T11:12:35.191Z,99998.53
2022-11-23T11:15:11.260Z,100001.16
2022-11-23T11:17:39.990Z,99999.34
2022-11-23T11:20:31.219Z,99997.66
2022-11-23T11:22:59.655Z,99995.03
2022-11-23T11:25:29.753Z,99999.41
2022-11-23T11:27:57.623Z,99993.22
2022-11-23T11:30:25.863Z,99994.94
2022-11-23T11:32:55.657Z,99991.41
2022-11-23T11:35:26.339Z,99994.81
2022-11-23T11:37:57.223Z,99993.00
2022-11-23T11:40:27.413Z,99997.28
2022-11-23T11:42:56.281Z,99995.50
2022-11-23T11:45:25.849Z,99994.78
2022-11-23T11:47:57.714Z,99994.72
2022-11-23T11:50:31.410Z,99995.53
2022-11-23T11:53:04.065Z,99998.25
2022-11-23T11:55:37.591Z,99997.34
2022-11-23T11:58:06.600Z,99991.16
2022-11-23T12:00:35.665Z,99989.31
2022-11-23T12:03:07.845Z,99983.22
2022-11-23T12:05:39.319Z,99991.94
2022-11-23T12:08:11.649Z,99998.88
2022-11-23T12:10:41.785Z,100002.28
2022-11-23T12:13:11.066Z,99992.38
2022-11-23T12:15:49.366Z,99982.69
2022-11-23T12:18:37.418Z,99993.00
2022-11-23T12:21:05.862Z,99993.00
2022-11-23T12:23:46.022Z,99991.09
2022-11-23T12:26:20.225Z,99990.97
2022-11-23T12:29:02.074Z,99985.63
2022-11-23T12:31:39.398Z,99989.94
2022-11-23T12:34:31.439Z,99984.56
2022-11-23T12:37:10.068Z,99984.50
2022-11-23T12:40:05.353Z,99983.59
2022-11-23T12:42:36.711Z,99992.19
2022-11-23T12:45:25.260Z,99994.75
2022-11-23T12:47:58.551Z,99989.44
2022-11-23T12:50:30.207Z,99992.84
2022-11-23T12:53:03.587Z,99997.28
2022-11-23T12:57:02.132Z,99998.09
2022-11-23T12:59:34.678Z,99987.75
2022-11-23T13:02:04.347Z,99982.63
2022-11-23T13:04:49.192Z,99984.53
2022-11-23T13:07:46.020Z,99986.34
2022-11-23T13:10:41.945Z,99995.22
2022-11-23T13:13:30.615Z,99991.75
2022-11-23T13:16:15.747Z,99989.19
2022-11-23T13:18:53.768Z,99991.88
2022-11-23T13:21:28.539Z,99986.63
2022-11-23T13:23:56.450Z,99986.63
2022-11-23T13:26:24.633Z,99979.66
2022-11-23T13:28:54.388Z,99978.81
2022-11-23T13:31:24.797Z,99983.16
2022-11-23T13:33:54.998Z,99979.69
2022-11-23T13:40:03.955Z,99976.19
2022-11-23T13:42:33.287Z,99967.53
2022-11-23T13:45:25.863Z,99973.78
2022-11-23T13:48:05.218Z,99966.84
2022-11-23T13:50:33.177Z,99968.72
2022-11-23T13:53:01.078Z,99973.97
2022-11-23T13:55:32.644Z,99975.72
2022-11-23T13:58:36.038Z,99976.59
2022-11-23T14:01:05.380Z,99972.19
2022-11-23T14:03:53.274Z,99973.78
2022-11-23T14:06:27.430Z,99966.56
2022-11-23T14:09:01.784Z,99957.72
2022-11-23T14:11:30.682Z,99959.41
2022-11-23T14:13:59.967Z,99959.47
2022-11-23T14:16:39.655Z,99969.16
2022-11-23T14:19:10.116Z,99956.03
2022-11-23T14:21:39.606Z,99956.03
2022-11-23T14:24:32.210Z,99967.38
2022-11-23T14:27:46.128Z,99949.84
2022-11-23T14:30:40.230Z,99955.09
2022-11-23T14:33:17.424Z,99959.47
2022-11-23T14:35:48.042Z,99957.78
2022-11-23T14:38:48.133Z,99950.75
2022-11-23T14:41:17.761Z,99952.53
2022-11-23T14:43:46.014Z,99955.16
2022-11-23T14:46:16.126Z,99954.22
2022-11-23T14:48:45.855Z,99970.84
2022-11-23T14:51:18.214Z,99972.63
2022-11-23T14:53:48.865Z,99957.81
2022-11-23T14:56:27.020Z,99966.66
2022-11-23T14:58:55.283Z,99972.00
2022-11-23T15:01:23.269Z,99977.31
2022-11-23T15:03:58.963Z,99979.16
2022-11-23T15:06:28.391Z,99980.91
2022-11-23T15:09:01.169Z,99982.75
2022-11-23T15:11:29.395Z,99991.63
2022-11-23T15:14:03.182Z,99996.03
2022-11-23T15:16:31.161Z,99997.88
2022-11-23T15:19:00.466Z,99991.75
2022-11-23T15:21:28.454Z,100001.38
2022-11-23T15:23:57.374Z,99996.28
2022-11-23T15:26:46.812Z,100005.94
2022-11-23T15:29:30.227Z,100009.47
2022-11-23T15:34:47.818Z,100014.66
2022-11-23T15:37:15.758Z,100013.03
2022-11-23T15:39:44.117Z,100018.41
2022-11-23T15:42:12.076Z,100014.97
2022-11-23T15:44:39.978Z,100015.94
2022-11-23T15:47:08.072Z,100020.41
2022-11-23T15:49:38.216Z,100029.22
2022-11-23T15:52:07.606Z,100025.78
2022-11-23T15:54:36.495Z,100020.69
2022-11-23T15:57:04.697Z,100026.03
2022-11-23T15:59:33.488Z,100034.84
2022-11-23T16:02:01.996Z,100027.94
2022-11-23T16:04:31.388Z,100033.19
2022-11-23T16:06:59.940Z,100032.44
2022-11-23T16:09:55.423Z,100037.69
2022-11-23T16:12:28.228Z,100034.28
2022-11-23T16:14:56.570Z,100032.56
2022-11-23T16:17:25.216Z,100032.56
2022-11-23T16:19:53.667Z,100043.09
2022-11-23T16:22:27.214Z,100028.22
2022-11-23T16:25:03.656Z,100029.13
2022-11-23T16:27:31.616Z,100029.13
2022-11-23T16:30:03.431Z,100018.66
2022-11-23T16:32:32.267Z,100011.69
2022-11-23T16:35:05.984Z,100021.28
2022-11-23T16:37:33.890Z,100020.47
2022-11-23T16:40:03.289Z,100010.88
2022-11-23T16:42:31.226Z,100010.03
2022-11-23T16:44:59.305Z,100003.97
2022-11-23T16:47:28.208Z,100003.97
2022-11-23T16:49:56.230Z,100004.97
2022-11-23T16:52:24.279Z,100005.88
2022-11-23T16:54:52.567Z,100013.75
2022-11-23T16:57:25.381Z,100026.06
2022-11-23T16:59:53.333Z,100023.53
2022-11-23T17:02:21.287Z,100027.13
2022-11-23T17:04:49.321Z,100029.75
2022-11-23T17:07:17.881Z,100033.28
2022-11-23T17:09:45.774Z,100042.06
2022-11-23T17:12:15.907Z,100042.97
2022-11-23T17:14:46.597Z,100046.59
2022-11-23T17:17:17.405Z,100054.50
2022-11-23T17:19:48.249Z,100061.47
2022-11-23T17:22:16.569Z,100046.63
2022-11-23T17:24:44.471Z,100047.56
2022-11-23T17:27:13.699Z,100049.31
2022-11-23T17:29:42.478Z,100061.56
2022-11-23T17:32:12.548Z,100053.78
2022-11-23T17:34:40.488Z,100063.41
2022-11-23T17:37:10.136Z,100067.88
2022-11-23T17:39:38.068Z,100070.50
2022-11-23T17:42:06.043Z,100081.88
2022-11-23T17:44:33.898Z,100079.31
2022-11-23T17:47:01.821Z,100082.84
2022-11-23T17:49:31.469Z,100086.34
2022-11-23T17:51:59.834Z,100086.34
2022-11-23T17:54:27.725Z,100087.28
2022-11-23T17:56:57.719Z,100096.88
2022-11-23T17:59:25.652Z,100094.28
2022-11-23T18:01:53.626Z,100100.47
2022-11-23T18:04:21.572Z,100099.59
2022-11-23T18:06:50.881Z,100113.63
2022-11-23T18:09:18.761Z,100111.94
2022-11-23T18:11:46.659Z,100111.06
2022-11-23T18:14:14.681Z,100114.59
2022-11-23T18:16:42.534Z,100115.47
2022-11-23T18:19:10.416Z,100120.78
2022-11-23T18:21:38.373Z,100121.69
2022-11-23T18:24:08.883Z,100127.78
2022-11-23T18:26:36.812Z,100119.06
2022-11-23T18:29:04.901Z,100125.16
2022-11-23T18:31:32.914Z,100133.06
2022-11-23T18:34:02.794Z,100125.34
2022-11-23T18:36:30.686Z,100138.38
2022-11-23T18:38:58.764Z,100134.00
2022-11-23T18:41:28.310Z,100135.75
2022-11-23T18:43:59.048Z,100147.06
2022-11-23T18:46:29.378Z,100133.84
2022-11-23T18:48:58.396Z,100130.25
2022-11-23T18:51:26.423Z,100139.00
2022-11-23T18:53:55.582Z,100131.13
2022-11-23T18:56:23.452Z,100132.03
2022-11-23T18:58:52.688Z,100139.09
2022-11-23T19:01:21.536Z,100130.28
2022-11-23T19:03:50.797Z,100146.03
2022-11-23T19:06:19.405Z,100139.00
2022-11-23T19:08:48.094Z,100143.31
2022-11-23T19:11:17.957Z,100140.59
2022-11-23T19:13:46.041Z,100144.09
2022-11-23T19:16:20.971Z,100143.22
2022-11-23T19:18:49.000Z,100147.63
2022-11-23T19:21:17.218Z,100144.09
2022-11-23T19:23:45.143Z,100152.88
2022-11-23T19:26:13.071Z,100147.63
2022-11-23T19:28:44.668Z,100152.75
2022-11-23T19:31:13.316Z,100142.25
2022-11-23T19:33:42.677Z,100142.38
2022-11-23T19:36:11.514Z,100149.34
2022-11-23T19:38:39.449Z,100144.03
2022-11-23T19:41:07.398Z,100150.94
2022-11-23T19:43:35.314Z,100154.47
2022-11-23T19:46:04.202Z,100152.69
2022-11-23T19:48:32.567Z,100155.31
2022-11-23T19:51:02.379Z,100157.09
2022-11-23T19:53:31.242Z,100156.19
2022-11-23T19:56:03.375Z,100165.81
2022-11-23T19:58:32.394Z,100162.34
2022-11-23T20:01:01.155Z,100167.59
2022-11-23T20:03:29.029Z,100168.47
2022-11-23T20:05:57.680Z,100164.16
2022-11-23T20:08:27.166Z,100168.47
2022-11-23T20:10:55.171Z,100166.72
2022-11-23T20:13:23.174Z,100164.06
2022-11-23T20:15:51.102Z,100164.88
2022-11-23T20:18:19.416Z,100159.59
2022-11-23T20:20:48.058Z,100165.75
2022-11-23T20:23:16.018Z,100162.22
2022-11-23T20:25:45.413Z,100158.75
2022-11-23T20:28:14.081Z,100171.78
2022-11-23T20:30:42.487Z,100166.53
2022-11-23T20:33:10.699Z,100165.59
2022-11-23T20:35:38.761Z,100174.38
2022-11-23T20:38:06.732Z,100177.03
2022-11-23T20:40:34.601Z,100181.41
2022-11-23T20:43:03.917Z,100179.66
2022-11-23T20:45:31.845Z,100183.22
2022-11-23T20:47:59.800Z,100190.16
2022-11-23T20:50:28.027Z,100188.47
2022-11-23T20:52:56.138Z,100193.72
2022-11-23T20:55:24.395Z,100191.94
2022-11-23T20:57:55.381Z,100192.78
2022-11-23T21:00:28.001Z,100191.09
2022-11-23T21:02:56.729Z,100193.72
2022-11-23T21:05:24.821Z,100202.41
2022-11-23T21:07:55.949Z,100190.16
2022-11-23T21:10:41.275Z,100193.59
2022-11-23T21:13:37.217Z,100203.22
2022-11-23T21:16:18.180Z,100198.84
2022-11-23T21:18:46.227Z,100207.59
2022-11-23T21:21:14.127Z,100202.34
2022-11-23T21:23:42.033Z,100200.56
2022-11-23T21:26:09.977Z,100202.34
2022-11-23T21:28:37.999Z,100211.06
2022-11-23T21:31:08.798Z,100211.06
2022-11-23T21:33:38.582Z,100209.31
2022-11-23T21:36:07.449Z,100211.94
2022-11-23T21:38:36.215Z,100215.47
2022-11-23T21:41:04.771Z,100211.97
2022-11-23T21:43:33.184Z,100213.69
2022-11-23T21:46:01.558Z,100218.94
2022-11-23T21:48:29.507Z,100217.13
2022-11-23T21:51:02.957Z,100222.38
2022-11-23T21:53:31.069Z,100214.50
2022-11-23T21:56:01.936Z,100224.03
2022-11-23T21:58:29.924Z,100217.00
2022-11-23T22:01:04.457Z,100230.13
2022-11-23T22:03:33.218Z,100220.50
2022-11-23T22:06:02.549Z,100231.88
2022-11-23T22:08:30.579Z,100229.28
2022-11-23T22:10:58.608Z,100225.78
2022-11-23T22:13:27.073Z,100229.34
2022-11-23T22:15:55.012Z,100234.59
2022-11-23T22:18:22.950Z,100228.50
2022-11-23T22:20:50.920Z,100239.00
2022-11-23T22:23:20.212Z,100236.38
2022-11-23T22:25:48.352Z,100236.47
2022-11-23T22:28:16.271Z,100240.81
2022-11-23T22:30:44.153Z,100246.88
2022-11-23T22:33:13.422Z,100241.63
2022-11-23T22:35:41.405Z,100252.13
2022-11-23T22:38:09.275Z,100246.00
2022-11-23T22:40:38.599Z,100259.13
2022-11-23T22:43:06.500Z,100256.41
2022-11-23T22:45:34.504Z,100259.00
2022-11-23T22:48:02.484Z,100260.72
2022-11-23T22:50:30.333Z,100260.72
2022-11-23T22:52:58.325Z,100259.00
2022-11-23T22:55:26.224Z,100265.13
2022-11-23T22:57:55.489Z,100270.38
2022-11-23T23:00:23.712Z,100265.97
2022-11-23T23:02:51.744Z,100271.22
2022-11-23T23:05:19.929Z,100271.22
2022-11-23T23:07:47.863Z,100271.22
2022-11-23T23:10:15.952Z,100271.22
2022-11-23T23:12:43.831Z,100275.56
2022-11-23T23:15:13.347Z,100282.56
2022-11-23T23:17:41.280Z,100274.69
2022-11-23T23:20:10.208Z,100265.97
2022-11-23T23:22:38.791Z,100276.47
2022-11-23T23:25:08.463Z,100280.81
2022-11-23T23:27:36.348Z,100279.94
2022-11-23T23:30:04.500Z,100279.03
2022-11-23T23:32:33.846Z,100279.03
2022-11-23T23:35:02.148Z,100279.91
2022-11-23T23:37:30.988Z,100286.91
2022-11-23T23:39:58.859Z,100283.44
2022-11-23T23:42:26.833Z,100283.44
2022-11-23T23:44:54.913Z,100287.78
2022-11-23T23:47:22.763Z,100285.16
2022-11-23T23:49:52.030Z,100287.72
2022-11-23T23:52:20.286Z,100293.81
2022-11-23T23:54:48.163Z,100296.38
2022-11-23T23:57:16.051Z,100294.63
2022-11-23T23:59:43.894Z,100303.38
